Time;durP1;ratioP1;P1;durP2;ratioP2;P2;SDS_P1;SDS_P2;PMS_P1;PMS_P2;Temp;Humidity;BMP_temperature;BMP_pressure;BME280_temperature;BME280_humidity;BME280_pressure;Samples;Min_cycle;Max_cycle;Signal;HPM_P1;HPM_P2
2023/03/04 09:17:31;;;;;;;14.43;1.77;;;6.60;99.90;;;;;;5110735;27;20307;-64
2023/03/04 09:19:57;;;;;;;5.15;1.25;;;6.50;99.90;;;;;;5126424;28;20100;-64
2023/03/04 09:22:22;;;;;;;7.80;1.05;;;6.60;99.90;;;;;;5126677;28;20047;-65
2023/03/04 09:24:48;;;;;;;9.60;1.20;;;6.60;99.90;;;;;;5126662;28;20043;-65
2023/03/04 09:27:13;;;;;;;5.70;1.38;;;7.20;99.90;;;;;;5110835;28;20036;-65
2023/03/04 09:29:39;;;;;;;2.97;1.20;;;6.70;99.90;;;;;;5109129;28;20093;-66
2023/03/04 09:32:05;;;;;;;6.45;1.30;;;6.80;99.90;;;;;;5109204;28;20399;-65
2023/03/04 09:34:31;;;;;;;3.45;0.95;;;6.80;99.90;;;;;;5110780;28;20471;-65
2023/03/04 09:36:56;;;;;;;6.07;1.25;;;6.90;99.90;;;;;;5126131;28;20039;-65
2023/03/04 09:39:22;;;;;;;9.13;1.60;;;6.90;99.90;;;;;;5110603;28;20032;-65
2023/03/04 09:41:51;;;;;;;9.18;1.35;;;7.00;99.90;;;;;;5126350;28;20073;-65
2023/03/04 09:44:25;;;;;;;6.80;1.10;;;7.00;99.90;;;;;;5092033;28;20040;-65
2023/03/04 09:46:53;;;;;;;5.45;1.10;;;7.10;99.90;;;;;;5110418;28;20075;-65
2023/03/04 09:49:20;;;;;;;4.28;1.30;;;7.20;99.90;;;;;;5110420;28;20032;-65
2023/03/04 09:51:57;;;;;;;9.52;0.65;;;7.30;99.90;;;;;;5108754;28;20055;-66
2023/03/04 09:54:23;;;;;;;1.88;0.95;;;7.20;99.90;;;;;;5110035;28;20418;-66
2023/03/04 09:56:52;;;;;;;6.53;1.17;;;7.70;99.90;;;;;;5110209;28;20100;-65
2023/03/04 09:59:40;;;;;;;7.07;1.23;;;7.20;99.90;;;;;;5109974;28;20043;-65
2023/03/04 10:02:49;;;;;;;2.45;0.60;;;7.10;99.90;;;;;;5091781;28;20044;-65
2023/03/04 10:05:20;;;;;;;2.83;0.85;;;7.00;99.90;;;;;;5082481;28;20087;-65
2023/03/04 10:07:55;;;;;;;;;;;7.00;99.90;;;;;;5108936;28;20043;-65
2023/03/04 10:10:34;;;;;;;0.85;0.40;;;7.10;99.90;;;;;;5109765;28;19915;-65
2023/03/04 10:13:02;;;;;;;0.60;0.35;;;7.20;99.90;;;;;;5108794;28;20040;-65
2023/03/04 10:15:39;;;;;;;4.88;0.60;;;7.20;99.90;;;;;;5109654;28;20126;-65
2023/03/04 10:18:13;;;;;;;0.25;0.25;;;7.30;99.90;;;;;;5110353;28;20031;-65
2023/03/04 10:21:06;;;;;;;1.23;0.47;;;7.30;99.90;;;;;;5109375;28;20046;-65
2023/03/04 10:23:34;;;;;;;3.97;1.02;;;7.30;99.90;;;;;;5108559;28;20047;-65
2023/03/04 10:26:09;;;;;;;3.13;0.65;;;7.40;99.90;;;;;;5110048;28;20087;-65
2023/03/04 10:28:35;;;;;;;2.17;0.40;;;7.50;99.90;;;;;;5097595;28;20032;-65
2023/03/04 10:31:21;;;;;;;3.58;0.60;;;7.80;99.90;;;;;;5095702;28;20075;-65
2023/03/04 10:33:48;;;;;;;1.65;0.68;;;7.70;99.90;;;;;;5081017;28;20130;-65
2023/03/04 10:36:29;;;;;;;1.17;0.60;;;7.70;99.90;;;;;;5095932;28;20048;-65
2023/03/04 10:38:59;;;;;;;2.67;0.60;;;7.60;99.90;;;;;;5095905;28;20036;-66
2023/03/04 10:41:27;;;;;;;4.03;1.23;;;8.50;99.90;;;;;;5095942;28;20116;-65
2023/03/04 10:44:00;;;;;;;3.78;1.00;;;7.30;99.90;;;;;;5095993;28;20036;-65
2023/03/04 10:46:26;;;;;;;8.35;1.10;;;7.50;99.90;;;;;;5094216;28;20403;-65
2023/03/04 10:48:53;;;;;;;2.58;0.70;;;7.10;99.90;;;;;;5095836;28;20040;-65
2023/03/04 10:51:22;;;;;;;3.78;1.10;;;7.20;99.90;;;;;;5094184;28;20089;-66
2023/03/04 10:53:54;;;;;;;5.85;1.17;;;7.30;99.90;;;;;;5095385;28;20071;-65
2023/03/04 10:56:45;;;;;;;5.05;0.90;;;7.40;99.90;;;;;;5095593;28;20115;-65
2023/03/04 10:59:22;;;;;;;5.13;1.15;;;7.50;99.90;;;;;;5095353;28;20028;-65
2023/03/04 11:01:50;;;;;;;4.55;1.35;;;7.70;99.90;;;;;;5095545;28;20392;-65
2023/03/04 11:04:22;;;;;;;2.53;0.98;;;7.60;99.90;;;;;;5095260;28;20092;-65
2023/03/04 11:06:47;;;;;;;8.40;1.02;;;7.70;99.90;;;;;;5095409;28;20042;-65
2023/03/04 11:09:28;;;;;;;3.15;1.05;;;7.60;99.90;;;;;;5094083;28;20495;-65
2023/03/04 11:11:57;;;;;;;4.00;0.80;;;7.60;26.60;;;;;;5095395;28;20040;-65
2023/03/04 11:14:27;;;;;;;5.15;1.02;;;7.50;6.40;;;;;;5093780;28;20304;-65
2023/03/04 11:17:01;;;;;;;8.45;1.02;;;7.50;8.40;;;;;;5094797;28;20052;-65
2023/03/04 11:19:43;;;;;;;5.07;1.63;;;7.50;19.70;;;;;;5095197;28;20048;-65
2023/03/04 11:22:12;;;;;;;3.97;1.00;;;7.50;27.00;;;;;;5094909;28;20100;-66
2023/03/04 11:24:37;;;;;;;5.35;1.00;;;7.50;1.00;;;;;;5093572;28;20040;-65
2023/03/04 11:27:20;;;;;;;7.68;1.33;;;7.50;1.00;;;;;;5094669;28;20047;-66
2023/03/04 11:29:53;;;;;;;4.53;1.20;;;7.50;1.00;;;;;;5094723;28;20048;-65
2023/03/04 11:32:26;;;;;;;2.38;0.75;;;7.50;1.00;;;;;;5094987;28;20040;-65
2023/03/04 11:35:06;;;;;;;3.33;0.70;;;8.20;3.80;;;;;;5094900;28;20454;-66
2023/03/04 11:37:53;;;;;;;2.17;0.52;;;7.60;1.00;;;;;;5093353;28;20409;-66
2023/03/04 11:40:44;;;;;;;7.07;1.58;;;7.60;1.00;;;;;;5092152;28;20403;-65
2023/03/04 11:43:18;;;;;;;3.00;1.45;;;8.10;1.00;;;;;;5094735;28;20039;-66
2023/03/04 11:46:00;;;;;;;8.07;1.75;;;7.50;1.00;;;;;;5094597;28;20044;-66
2023/03/04 11:48:48;;;;;;;6.40;1.15;;;7.40;1.00;;;;;;5094621;28;20048;-67
2023/03/04 11:51:20;;;;;;;4.05;1.08;;;7.40;1.00;;;;;;5093237;28;20080;-66
2023/03/04 11:54:15;;;;;;;8.18;1.33;;;7.50;1.00;;;;;;5094171;28;20051;-66
2023/03/04 11:56:46;;;;;;;2.50;0.80;;;7.60;1.00;;;;;;5039158;28;20490;-66
2023/03/04 11:59:24;;;;;;;5.25;1.45;;;7.90;1.00;;;;;;5094448;28;20115;-66
2023/03/04 12:02:17;;;;;;;4.55;0.80;;;8.10;1.00;;;;;;5110105;28;20048;-65
2023/03/04 12:04:46;;;;;;;3.47;0.90;;;8.30;1.00;;;;;;5094151;28;20493;-65
2023/03/04 12:07:49;;;;;;;6.65;0.88;;;8.20;1.00;;;;;;5094196;28;20120;-65
2023/03/04 12:10:40;;;;;;;2.72;0.50;;;8.10;1.00;;;;;;5094205;28;20399;-66
2023/03/04 12:13:29;;;;;;;4.03;0.73;;;8.20;1.00;;;;;;5092878;28;20092;-66
2023/03/04 12:16:35;;;;;;;2.92;0.70;;;8.20;1.00;;;;;;5093846;28;20059;-66
2023/03/04 12:19:08;;;;;;;4.90;0.95;;;8.10;1.00;;;;;;5094077;28;20059;-70
2023/03/04 12:21:56;;;;;;;1.50;0.50;;;7.90;1.00;;;;;;5092252;28;20062;-66
2023/03/04 12:24:36;;;;;;;5.35;1.20;;;7.80;3.00;;;;;;5093865;28;20093;-64
2023/03/04 12:27:09;;;;;;;3.55;0.80;;;7.90;11.40;;;;;;5093823;28;20405;-65
2023/03/04 12:29:53;;;;;;;4.28;0.80;;;8.30;14.10;;;;;;5093729;28;20043;-65
2023/03/04 12:32:38;;;;;;;4.28;0.80;;;9.00;60.20;;;;;;5093699;28;20047;-65
2023/03/04 12:35:28;;;;;;;3.10;0.70;;;9.30;1.00;;;;;;5093742;28;20048;-65
2023/03/04 12:38:17;;;;;;;5.78;0.80;;;9.00;99.90;;;;;;5093668;28;20506;-65
2023/03/04 12:40:51;;;;;;;3.25;0.98;;;8.90;99.90;;;;;;5085080;28;20044;-65
2023/03/04 12:43:40;;;;;;;5.20;0.95;;;8.70;99.90;;;;;;5093584;28;20404;-65
2023/03/04 12:46:39;;;;;;;3.72;0.82;;;8.70;99.90;;;;;;5093257;28;20047;-65
2023/03/04 12:49:32;;;;;;;3.25;0.98;;;8.80;99.90;;;;;;5093243;28;20079;-65
2023/03/04 12:52:08;;;;;;;2.15;0.80;;;8.90;99.90;;;;;;5109282;28;20040;-64
2023/03/04 12:54:42;;;;;;;5.97;0.80;;;8.80;99.90;;;;;;5091834;28;20051;-65
2023/03/04 12:57:13;;;;;;;2.60;0.80;;;8.70;99.90;;;;;;5093287;28;20377;-65
2023/03/04 12:59:58;;;;;;;3.80;1.00;;;8.40;99.90;;;;;;5093005;28;20036;-65
2023/03/04 13:02:57;;;;;;;2.50;0.70;;;8.20;99.90;;;;;;5093130;28;20050;-66
2023/03/04 13:05:36;;;;;;;7.22;1.27;;;7.90;99.90;;;;;;5092131;28;20118;-65
2023/03/04 13:08:10;;;;;;;4.57;1.10;;;7.90;99.90;;;;;;5093253;28;20032;-65
2023/03/04 13:10:35;;;;;;;5.00;1.10;;;7.80;99.90;;;;;;5091704;28;20408;-65
2023/03/04 13:13:02;;;;;;;7.15;1.08;;;7.90;99.90;;;;;;5093131;28;20032;-65
2023/03/04 13:15:36;;;;;;;6.18;0.95;;;7.90;99.90;;;;;;5092910;28;20067;-65
2023/03/04 13:18:32;;;;;;;1.60;0.80;;;8.00;99.90;;;;;;5091549;28;20044;-65
2023/03/04 13:21:10;;;;;;;2.45;0.82;;;7.90;99.90;;;;;;5092806;28;20081;-65
2023/03/04 13:23:36;;;;;;;8.23;1.30;;;8.40;1.00;;;;;;5093095;28;20040;-65
2023/03/04 13:26:01;;;;;;;5.95;1.00;;;8.50;99.90;;;;;;5093336;28;20099;-65
2023/03/04 13:28:30;;;;;;;3.22;1.10;;;8.80;99.90;;;;;;5092758;28;20166;-65
2023/03/04 13:30:55;;;;;;;2.53;0.90;;;8.60;99.90;;;;;;5091729;28;20051;-65
2023/03/04 13:33:21;;;;;;;2.30;0.60;;;8.40;99.90;;;;;;5092967;28;20040;-65
2023/03/04 13:36:00;;;;;;;3.47;1.13;;;8.20;99.90;;;;;;5092580;28;20086;-65
2023/03/04 13:38:26;;;;;;;3.17;0.70;;;7.70;99.90;;;;;;5093005;28;20040;-66
2023/03/04 13:41:27;;;;;;;2.20;0.50;;;7.50;99.90;;;;;;5091538;28;20047;-67
2023/03/04 13:43:54;;;;;;;2.83;0.90;;;7.40;1.00;;;;;;5091272;28;20044;-64
2023/03/04 13:46:22;;;;;;;11.82;1.05;;;7.40;1.00;;;;;;5091525;28;20108;-65
2023/03/04 13:48:50;;;;;;;4.20;0.80;;;7.50;1.00;;;;;;5074511;28;20051;-65
2023/03/04 13:51:31;;;;;;;0.70;0.55;;;7.60;1.00;;;;;;5092645;28;20123;-65
2023/03/04 13:53:59;;;;;;;6.38;0.85;;;7.60;99.90;;;;;;5092794;28;20093;-65
2023/03/04 13:56:41;;;;;;;2.28;0.73;;;7.60;99.90;;;;;;5091292;28;20473;-64
2023/03/04 13:59:07;;;;;;;3.42;0.52;;;7.80;99.90;;;;;;5091309;28;20455;-65
2023/03/04 14:01:35;;;;;;;3.97;0.82;;;8.00;99.90;;;;;;5092772;28;20070;-65
2023/03/04 14:04:17;;;;;;;3.80;1.27;;;8.00;99.90;;;;;;5096137;28;20093;-65
2023/03/04 14:06:51;;;;;;;1.45;0.80;;;8.00;99.90;;;;;;5096600;28;20119;-65
2023/03/04 14:09:23;;;;;;;2.42;0.90;;;8.10;99.90;;;;;;5096655;28;20118;-65
2023/03/04 14:11:51;;;;;;;5.22;0.88;;;8.00;99.90;;;;;;5095266;28;20039;-65
2023/03/04 14:14:22;;;;;;;1.48;0.40;;;8.10;99.90;;;;;;5096267;28;20040;-65
2023/03/04 14:16:52;;;;;;;5.68;0.55;;;8.30;99.90;;;;;;5096002;28;20059;-65
2023/03/04 14:19:26;;;;;;;3.83;0.80;;;8.60;99.90;;;;;;5096418;28;20201;-65
2023/03/04 14:21:52;;;;;;;3.13;0.63;;;8.60;99.90;;;;;;5094677;28;20044;-65
2023/03/04 14:24:19;;;;;;;1.23;0.70;;;8.60;99.90;;;;;;5096269;28;20506;-65
2023/03/04 14:26:46;;;;;;;2.72;0.77;;;8.40;99.90;;;;;;5095898;28;20173;-68
2023/03/04 14:29:25;;;;;;;1.73;0.50;;;8.20;99.90;;;;;;5094937;28;20043;-65
2023/03/04 14:31:52;;;;;;;1.88;0.75;;;8.00;99.90;;;;;;5096108;28;20040;-65
2023/03/04 14:34:30;;;;;;;8.07;1.08;;;7.90;99.90;;;;;;5094485;28;20040;-65
2023/03/04 14:36:57;;;;;;;2.42;0.65;;;7.70;99.90;;;;;;5095999;28;20051;-65
2023/03/04 14:39:26;;;;;;;5.22;1.00;;;7.70;99.90;;;;;;5096022;28;20032;-65
2023/03/04 14:41:53;;;;;;;2.17;0.55;;;7.70;99.90;;;;;;5095921;28;20044;-65
2023/03/04 14:44:36;;;;;;;2.50;0.80;;;7.50;99.90;;;;;;5096023;28;20039;-65
2023/03/04 14:47:28;;;;;;;5.18;1.23;;;7.40;1.00;;;;;;5095569;28;20048;-65
2023/03/04 14:49:54;;;;;;;1.50;0.52;;;7.20;1.00;;;;;;5095798;28;20380;-65
2023/03/04 14:52:41;;;;;;;9.20;0.93;;;7.10;19.70;;;;;;5111157;28;20050;-65
2023/03/04 14:55:27;;;;;;;6.20;0.85;;;7.20;16.10;;;;;;5095704;28;20051;-66
2023/03/04 14:58:07;;;;;;;5.35;1.23;;;7.40;22.70;;;;;;5095598;28;20040;-65
2023/03/04 15:00:35;;;;;;;3.30;1.05;;;6.50;32.60;;;;;;5095550;28;20040;-65
2023/03/04 15:03:06;;;;;;;1.95;0.73;;;6.30;22.30;;;;;;5095483;28;20043;-65
2023/03/04 15:05:35;;;;;;;4.20;0.82;;;6.40;22.00;;;;;;5077187;28;20387;-65
2023/03/04 15:08:17;;;;;;;2.60;0.75;;;6.40;23.00;;;;;;5095449;28;20035;-65
2023/03/04 15:10:52;;;;;;;0.63;0.47;;;6.50;13.40;;;;;;5095369;28;20067;-65
2023/03/04 15:13:39;;;;;;;2.97;0.65;;;6.50;1.00;;;;;;5095175;28;20093;-65
2023/03/04 15:16:06;;;;;;;8.20;0.55;;;7.00;1.00;;;;;;5094957;28;20102;-65
2023/03/04 15:18:32;;;;;;;1.83;0.60;;;7.00;1.00;;;;;;5095296;28;20070;-65
2023/03/04 15:21:25;;;;;;;6.75;0.90;;;6.80;1.00;;;;;;5095176;28;20111;-65
2023/03/04 15:23:51;;;;;;;3.92;0.90;;;6.60;1.00;;;;;;5094719;28;20438;-65
2023/03/04 15:26:16;;;;;;;5.88;1.30;;;6.40;2.30;;;;;;5094799;28;20040;-65
2023/03/04 15:28:42;;;;;;;5.25;1.15;;;6.20;14.20;;;;;;5093722;28;20040;-65
2023/03/04 15:31:17;;;;;;;7.25;1.55;;;6.30;32.10;;;;;;5094653;28;20047;-65
2023/03/04 15:33:43;;;;;;;1.25;0.52;;;6.30;37.70;;;;;;5094611;28;20097;-65
2023/03/04 15:36:14;;;;;;;2.58;0.85;;;6.20;42.10;;;;;;5094804;28;20036;-65
2023/03/04 15:38:43;;;;;;;4.35;0.70;;;6.20;32.60;;;;;;5094504;28;20051;-65
2023/03/04 15:41:11;;;;;;;3.35;1.10;;;6.20;27.80;;;;;;5094731;28;20031;-66
2023/03/04 15:43:36;;;;;;;6.07;0.57;;;6.50;29.40;;;;;;5094730;28;20040;-66
2023/03/04 15:46:02;;;;;;;3.28;0.70;;;6.30;10.70;;;;;;5094591;28;20536;-67
2023/03/04 15:48:28;;;;;;;3.95;0.80;;;6.40;1.00;;;;;;5094204;28;20040;-65
2023/03/04 15:50:59;;;;;;;5.32;0.68;;;6.50;1.00;;;;;;5094524;28;20044;-65
2023/03/04 15:53:32;;;;;;;7.00;1.13;;;6.50;1.00;;;;;;5094452;28;20483;-66
2023/03/04 15:55:58;;;;;;;3.05;0.57;;;6.80;1.00;;;;;;5094324;28;20088;-65
2023/03/04 15:58:25;;;;;;;1.38;0.70;;;6.70;1.00;;;;;;5094497;28;20040;-65
2023/03/04 16:00:50;;;;;;;1.63;0.80;;;6.50;1.00;;;;;;5094379;28;20032;-65
2023/03/04 16:03:19;;;;;;;3.08;0.80;;;6.10;1.00;;;;;;5094078;28;20380;-65
2023/03/04 16:05:47;;;;;;;3.05;0.70;;;6.30;1.00;;;;;;5094401;28;20403;-65
2023/03/04 16:08:16;;;;;;;5.05;0.90;;;6.20;1.00;;;;;;5094109;28;20040;-65
2023/03/04 16:10:43;;;;;;;5.95;0.95;;;6.20;5.80;;;;;;5094077;28;20032;-64
2023/03/04 16:13:17;;;;;;;3.15;1.20;;;6.30;14.00;;;;;;5094077;28;20032;-66
2023/03/04 16:15:43;;;;;;;2.58;0.98;;;6.40;8.00;;;;;;5092528;28;20048;-65
2023/03/04 16:18:10;;;;;;;6.47;0.85;;;6.20;1.00;;;;;;5094065;28;20032;-64
2023/03/04 16:20:37;;;;;;;1.77;0.77;;;6.20;1.00;;;;;;5092887;28;20030;-65
2023/03/04 16:23:03;;;;;;;3.33;0.85;;;6.10;1.00;;;;;;5093938;28;20036;-65
2023/03/04 16:25:29;;;;;;;3.70;1.15;;;5.90;1.00;;;;;;5093203;28;20050;-65
2023/03/04 16:27:57;;;;;;;2.53;0.82;;;5.70;1.00;;;;;;5093505;28;20039;-67
2023/03/04 16:30:25;;;;;;;2.53;0.80;;;5.70;12.00;;;;;;5092558;28;20039;-65
2023/03/04 16:32:52;;;;;;;3.63;1.00;;;5.60;16.30;;;;;;5093555;28;20028;-65
2023/03/04 16:35:19;;;;;;;6.63;1.23;;;5.60;14.60;;;;;;5093656;28;20097;-66
2023/03/04 16:37:46;;;;;;;5.50;1.20;;;5.60;9.40;;;;;;5093258;28;20032;-68
2023/03/04 16:40:18;;;;;;;0.88;0.50;;;5.50;11.00;;;;;;5092462;28;20039;-69
2023/03/04 16:42:44;;;;;;;2.95;1.17;;;5.50;1.00;;;;;;5092277;28;20122;-65
2023/03/04 16:45:16;;;;;;;2.17;0.68;;;5.30;1.00;;;;;;5093555;28;20039;-70
2023/03/04 16:47:41;;;;;;;9.23;1.00;;;5.60;2.40;;;;;;5091968;28;20040;-68
2023/03/04 16:50:13;;;;;;;4.38;1.05;;;5.50;1.00;;;;;;5093172;28;20510;-65
2023/03/04 16:52:39;;;;;;;1.40;0.60;;;5.40;1.00;;;;;;5091961;28;20036;-67
2023/03/04 16:55:04;;;;;;;4.10;1.15;;;5.50;9.60;;;;;;5093459;28;20394;-67
2023/03/04 16:57:30;;;;;;;3.08;0.70;;;5.50;6.50;;;;;;5108854;28;20048;-70
2023/03/04 16:59:56;;;;;;;4.30;0.63;;;5.60;3.30;;;;;;5108793;28;20038;-68
2023/03/04 17:02:26;;;;;;;6.03;0.80;;;5.40;10.80;;;;;;5108931;28;20040;-69
2023/03/04 17:04:52;;;;;;;4.35;0.85;;;5.30;6.20;;;;;;5091781;28;20040;-65
2023/03/04 17:07:18;;;;;;;3.35;0.77;;;5.30;9.80;;;;;;5093276;28;20070;-70
2023/03/04 17:09:43;;;;;;;1.98;0.73;;;5.10;16.00;;;;;;5108621;28;20484;-66
2023/03/04 17:12:11;;;;;;;3.30;0.95;;;5.20;15.80;;;;;;5108652;28;20044;-66
2023/03/04 17:14:37;;;;;;;4.00;0.65;;;5.20;25.50;;;;;;5092825;28;20040;-66
2023/03/04 17:17:04;;;;;;;1.80;1.00;;;5.20;22.80;;;;;;5092699;28;20408;-67
2023/03/04 17:19:30;;;;;;;2.67;1.00;;;5.20;32.70;;;;;;5092897;28;20052;-70
2023/03/04 17:22:00;;;;;;;7.07;0.95;;;5.10;32.10;;;;;;5108659;28;20032;-66
2023/03/04 17:24:26;;;;;;;5.50;0.95;;;5.20;36.20;;;;;;5093119;28;20028;-66
2023/03/04 17:26:52;;;;;;;6.70;1.15;;;5.10;26.00;;;;;;5093096;28;20466;-66
2023/03/04 17:29:18;;;;;;;1.25;0.50;;;5.00;28.50;;;;;;5093010;28;20384;-66
2023/03/04 17:31:44;;;;;;;2.95;0.98;;;5.10;29.10;;;;;;5092985;28;20062;-66
2023/03/04 17:34:10;;;;;;;1.02;0.30;;;5.90;34.10;;;;;;5092636;28;20123;-68
2023/03/04 17:36:35;;;;;;;1.98;0.60;;;5.00;29.00;;;;;;5108220;28;20054;-66
2023/03/04 17:39:02;;;;;;;5.18;1.00;;;4.90;28.20;;;;;;5096164;28;20032;-69
2023/03/04 17:41:27;;;;;;;3.38;0.73;;;5.10;29.00;;;;;;5097360;28;20454;-69
2023/03/04 17:43:53;;;;;;;6.43;2.33;;;5.00;26.10;;;;;;5096927;28;20064;-67
2023/03/04 17:46:22;;;;;;;11.63;5.40;;;4.90;26.30;;;;;;5096634;28;20047;-65
2023/03/04 17:48:48;;;;;;;16.73;6.45;;;4.90;17.30;;;;;;5096853;28;20036;-65
2023/03/04 17:51:14;;;;;;;6.82;2.60;;;4.90;21.60;;;;;;5096882;28;20111;-65
2023/03/04 17:53:40;;;;;;;6.70;2.70;;;4.90;33.00;;;;;;5096823;28;20117;-65
2023/03/04 17:56:09;;;;;;;14.68;3.40;;;4.90;29.30;;;;;;5096742;28;20044;-65
2023/03/04 17:58:35;;;;;;;7.65;5.13;;;4.90;33.80;;;;;;5096746;28;20515;-65
2023/03/04 18:01:13;;;;;;;6.82;2.67;;;4.80;33.90;;;;;;5096672;28;20491;-65
2023/03/04 18:03:39;;;;;;;8.57;5.05;;;4.80;37.70;;;;;;5096623;28;20032;-65
2023/03/04 18:06:05;;;;;;;4.00;1.90;;;4.70;41.00;;;;;;5096305;28;20051;-65
2023/03/04 18:08:30;;;;;;;4.22;1.38;;;4.70;47.40;;;;;;5096502;28;20040;-65
2023/03/04 18:10:56;;;;;;;5.75;4.00;;;4.70;48.70;;;;;;5096406;28;20044;-66
2023/03/04 18:13:21;;;;;;;3.58;2.13;;;4.70;52.40;;;;;;5096331;28;20475;-65
2023/03/04 18:15:47;;;;;;;7.32;2.42;;;4.70;51.80;;;;;;5096040;28;20091;-65
2023/03/04 18:18:13;;;;;;;4.65;2.05;;;4.70;52.30;;;;;;5096336;28;20116;-65
2023/03/04 18:20:38;;;;;;;4.53;1.40;;;4.70;50.70;;;;;;5096207;28;20468;-65
2023/03/04 18:23:04;;;;;;;2.92;1.40;;;4.70;51.50;;;;;;5096206;28;20032;-66
2023/03/04 18:25:29;;;;;;;8.77;2.22;;;4.70;56.10;;;;;;5096036;28;20039;-66
2023/03/04 18:27:55;;;;;;;4.05;1.27;;;4.70;56.30;;;;;;5111878;28;20047;-65
2023/03/04 18:30:26;;;;;;;3.10;1.13;;;4.70;55.80;;;;;;5111507;28;20083;-65
2023/03/04 18:32:52;;;;;;;3.90;2.33;;;4.70;57.40;;;;;;5096140;28;20043;-67
2023/03/04 18:35:19;;;;;;;12.05;6.28;;;4.70;57.80;;;;;;5094466;28;20321;-65
2023/03/04 18:37:45;;;;;;;19.48;7.93;;;4.70;64.70;;;;;;5094634;28;20048;-66
2023/03/04 18:40:11;;;;;;;8.68;4.95;;;4.70;62.20;;;;;;5095848;28;20089;-65
2023/03/04 18:42:37;;;;;;;9.55;6.35;;;4.60;64.20;;;;;;5094475;28;20047;-65
2023/03/04 18:45:04;;;;;;;6.43;3.72;;;4.60;65.20;;;;;;5095494;28;20048;-65
2023/03/04 18:47:31;;;;;;;5.55;2.58;;;4.70;69.10;;;;;;5095582;28;20055;-66
2023/03/04 18:49:57;;;;;;;6.13;1.80;;;4.70;73.90;;;;;;5094874;28;20369;-65
2023/03/04 18:52:23;;;;;;;3.30;1.15;;;4.70;78.10;;;;;;5095692;28;20039;-65
2023/03/04 18:54:48;;;;;;;7.68;1.38;;;4.70;83.40;;;;;;5110946;28;20036;-65
2023/03/04 18:57:15;;;;;;;3.97;1.08;;;4.60;81.30;;;;;;5110933;28;20496;-69
2023/03/04 18:59:58;;;;;;;4.70;0.98;;;4.60;80.90;;;;;;5094181;28;20040;-66
2023/03/04 19:02:39;;;;;;;6.63;1.20;;;4.50;81.20;;;;;;5093714;28;20124;-66
2023/03/04 19:05:09;;;;;;;2.00;1.20;;;4.40;87.20;;;;;;5111234;28;20047;-66
2023/03/04 19:07:35;;;;;;;4.63;0.98;;;4.90;95.20;;;;;;5095169;28;20044;-66
2023/03/04 19:10:01;;;;;;;1.40;0.95;;;4.40;92.80;;;;;;5095282;28;20047;-66
2023/03/04 19:12:26;;;;;;;1.50;0.70;;;4.40;91.80;;;;;;5095317;28;20100;-66
2023/03/04 19:14:52;;;;;;;3.60;0.85;;;4.40;91.20;;;;;;5094895;28;20584;-66
2023/03/04 19:17:18;;;;;;;2.10;0.95;;;4.40;87.60;;;;;;5094532;28;20055;-66
2023/03/04 19:19:43;;;;;;;2.42;0.75;;;4.30;87.80;;;;;;5094755;28;20495;-66
2023/03/04 19:22:09;;;;;;;2.40;1.00;;;4.30;90.40;;;;;;5094947;28;20107;-65
2023/03/04 19:24:35;;;;;;;5.78;0.90;;;4.30;86.40;;;;;;5094611;28;20398;-66
2023/03/04 19:27:01;;;;;;;8.48;1.40;;;4.30;84.90;;;;;;5094908;28;20032;-66
2023/03/04 19:29:28;;;;;;;3.70;1.20;;;4.30;85.70;;;;;;5094955;28;20119;-67
2023/03/04 19:31:54;;;;;;;1.88;0.90;;;4.30;85.80;;;;;;5094553;28;20127;-66
2023/03/04 19:34:19;;;;;;;5.82;1.13;;;4.30;84.10;;;;;;5093306;28;20075;-66
2023/03/04 19:36:45;;;;;;;3.72;1.67;;;4.30;86.40;;;;;;5094716;28;20032;-66
2023/03/04 19:39:12;;;;;;;5.65;1.00;;;4.30;86.30;;;;;;5110504;28;20040;-66
2023/03/04 19:41:40;;;;;;;5.32;2.65;;;4.30;84.20;;;;;;5094723;28;20488;-67
2023/03/04 19:44:05;;;;;;;1.17;0.77;;;4.30;88.20;;;;;;5094445;28;20399;-66
2023/03/04 19:46:31;;;;;;;2.85;1.73;;;4.30;87.70;;;;;;5110281;28;20040;-66
2023/03/04 19:48:56;;;;;;;3.95;1.27;;;4.30;90.50;;;;;;5094296;28;20044;-66
2023/03/04 19:51:27;;;;;;;5.40;2.53;;;4.30;91.20;;;;;;5094547;28;20029;-66
2023/03/04 19:53:53;;;;;;;3.53;0.90;;;4.30;92.60;;;;;;5094246;28;20459;-66
2023/03/04 19:56:20;;;;;;;24.80;14.38;;;4.30;92.70;;;;;;5092806;28;20406;-66
2023/03/04 19:58:47;;;;;;;13.57;7.18;;;4.20;93.10;;;;;;5092824;28;20085;-66
2023/03/04 20:01:24;;;;;;;28.73;12.80;;;4.30;94.20;;;;;;5093434;28;20028;-66
2023/03/04 20:03:50;;;;;;;11.55;5.65;;;4.30;96.50;;;;;;5092910;28;20080;-66
2023/03/04 20:06:15;;;;;;;103.95;43.88;;;4.30;96.30;;;;;;5094175;28;20086;-66
2023/03/04 20:08:41;;;;;;;50.78;20.45;;;4.20;97.70;;;;;;5094110;28;20493;-66
2023/03/04 20:11:11;;;;;;;17.50;5.95;;;4.20;96.90;;;;;;5093970;28;20063;-67
2023/03/04 20:13:36;;;;;;;16.95;7.32;;;4.20;98.30;;;;;;5094133;28;20487;-67
2023/03/04 20:16:06;;;;;;;15.73;7.72;;;4.20;97.90;;;;;;5093501;28;20055;-66
2023/03/04 20:18:32;;;;;;;13.00;6.80;;;5.00;97.80;;;;;;5094011;28;20044;-68
2023/03/04 20:20:57;;;;;;;5.55;2.92;;;4.20;97.00;;;;;;5093661;28;20059;-66
2023/03/04 20:23:23;;;;;;;9.32;5.32;;;4.20;98.00;;;;;;5093947;28;20081;-67
2023/03/04 20:25:49;;;;;;;5.43;2.55;;;4.20;97.50;;;;;;5093839;28;20449;-66
2023/03/04 20:28:14;;;;;;;3.03;1.23;;;4.20;97.30;;;;;;5093742;28;20047;-67
2023/03/04 20:30:40;;;;;;;3.05;1.00;;;4.20;96.70;;;;;;5093585;28;20472;-67
2023/03/04 20:33:08;;;;;;;2.80;1.27;;;4.20;96.80;;;;;;5093806;28;20062;-65
2023/03/04 20:35:34;;;;;;;1.52;0.63;;;4.10;96.00;;;;;;5093869;28;20165;-66
2023/03/04 20:37:59;;;;;;;7.18;0.90;;;4.20;96.40;;;;;;5093604;28;20127;-66
2023/03/04 20:40:25;;;;;;;5.93;1.38;;;4.10;96.60;;;;;;5109001;28;20129;-67
2023/03/04 20:42:50;;;;;;;1.77;0.77;;;4.10;96.80;;;;;;5093546;28;20395;-67
2023/03/04 20:45:16;;;;;;;1.58;0.90;;;4.90;97.90;;;;;;5092096;28;20093;-66
2023/03/04 20:47:42;;;;;;;3.45;0.88;;;4.10;96.70;;;;;;5093521;28;20544;-66
2023/03/04 20:50:08;;;;;;;6.07;1.02;;;4.00;97.20;;;;;;5093567;28;20040;-67
2023/03/04 20:52:34;;;;;;;2.25;0.43;;;4.00;96.20;;;;;;5093431;28;20040;-66
2023/03/04 20:54:59;;;;;;;5.22;0.85;;;4.00;97.10;;;;;;5109115;28;20058;-66
2023/03/04 20:57:25;;;;;;;1.95;0.77;;;4.00;97.40;;;;;;5108716;28;20048;-66
2023/03/04 20:59:51;;;;;;;11.75;1.42;;;4.00;99.20;;;;;;5091844;28;20107;-67
2023/03/04 21:02:18;;;;;;;7.32;1.08;;;4.30;99.90;;;;;;5108766;28;20039;-66
2023/03/04 21:04:44;;;;;;;1.85;0.88;;;4.00;99.90;;;;;;5091954;28;20040;-67
2023/03/04 21:07:10;;;;;;;2.35;0.80;;;4.00;99.90;;;;;;5093052;28;20055;-66
2023/03/04 21:09:36;;;;;;;3.63;1.17;;;3.90;99.90;;;;;;5093296;28;20400;-67
2023/03/04 21:12:01;;;;;;;2.85;1.30;;;4.00;99.90;;;;;;5092941;28;20036;-66
2023/03/04 21:14:29;;;;;;;1.05;0.68;;;4.00;99.90;;;;;;5093134;28;20043;-66
2023/03/04 21:16:57;;;;;;;0.57;0.50;;;4.00;99.90;;;;;;5092619;28;20177;-66
2023/03/04 21:19:32;;;;;;;2.13;0.80;;;3.90;99.90;;;;;;5093201;28;20399;-66
2023/03/04 21:21:59;;;;;;;0.47;0.40;;;3.90;99.90;;;;;;5075169;28;20467;-66
2023/03/04 21:24:28;;;;;;;2.83;1.08;;;3.80;99.90;;;;;;5092952;28;20410;-66
2023/03/04 21:26:54;;;;;;;2.17;0.88;;;3.70;99.90;;;;;;5091623;28;20047;-67
2023/03/04 21:29:22;;;;;;;4.22;0.80;;;3.70;99.90;;;;;;5093178;28;20426;-68
2023/03/04 21:31:52;;;;;;;5.30;0.88;;;3.60;99.90;;;;;;5091606;28;20085;-66
2023/03/04 21:34:29;;;;;;;2.95;0.82;;;3.60;99.90;;;;;;5092935;28;20043;-66
2023/03/04 21:36:55;;;;;;;4.18;0.85;;;3.50;99.90;;;;;;5092998;28;20044;-66
2023/03/04 21:39:23;;;;;;;3.28;0.90;;;3.50;99.90;;;;;;5092980;28;20040;-65
2023/03/04 21:41:49;;;;;;;1.17;0.80;;;3.50;99.90;;;;;;5092774;28;20051;-65
2023/03/04 21:44:15;;;;;;;0.73;0.38;;;3.40;99.90;;;;;;5093009;28;20047;-67
2023/03/04 21:46:40;;;;;;;1.25;0.88;;;3.50;99.90;;;;;;5092979;28;20040;-68
2023/03/04 21:49:13;;;;;;;2.13;0.80;;;3.50;99.90;;;;;;5108674;28;20127;-67
2023/03/04 21:51:39;;;;;;;1.85;0.82;;;3.50;99.90;;;;;;5093008;28;20039;-68
2023/03/04 21:54:06;;;;;;;1.60;0.77;;;3.50;99.90;;;;;;5091455;28;20096;-67
2023/03/04 21:56:32;;;;;;;4.22;0.50;;;3.50;99.90;;;;;;5074465;28;20144;-67
2023/03/04 21:58:59;;;;;;;2.47;0.90;;;3.50;99.90;;;;;;5091375;28;20047;-68
2023/03/04 22:01:25;;;;;;;2.75;0.70;;;3.50;99.90;;;;;;5092534;28;20040;-67
2023/03/04 22:03:50;;;;;;;1.52;0.90;;;3.50;99.90;;;;;;5092798;28;20039;-68
2023/03/04 22:06:23;;;;;;;1.50;0.73;;;3.50;99.90;;;;;;5092836;28;20054;-68
2023/03/04 22:08:50;;;;;;;2.10;1.08;;;3.50;99.90;;;;;;5092802;28;20201;-65
2023/03/04 22:11:17;;;;;;;3.70;1.15;;;3.50;99.90;;;;;;5092752;28;20511;-65
2023/03/04 22:13:42;;;;;;;2.72;0.90;;;3.50;99.90;;;;;;5091204;28;20044;-67
2023/03/04 22:16:08;;;;;;;2.17;0.88;;;3.50;99.90;;;;;;5092305;28;20604;-65
2023/03/04 22:18:35;;;;;;;1.17;0.80;;;3.50;99.90;;;;;;5092395;28;20074;-65
2023/03/04 22:21:12;;;;;;;3.15;0.90;;;3.50;99.90;;;;;;5091060;28;20044;-66
2023/03/04 22:23:39;;;;;;;3.85;0.90;;;3.50;99.90;;;;;;5092309;28;20040;-67
2023/03/04 22:26:14;;;;;;;4.68;0.82;;;3.50;99.90;;;;;;5096631;28;20109;-67
2023/03/04 22:28:40;;;;;;;1.50;0.90;;;3.50;99.90;;;;;;5096289;28;20123;-67
2023/03/04 22:31:30;;;;;;;1.83;0.77;;;3.40;99.90;;;;;;5094691;28;20055;-67
2023/03/04 22:34:10;;;;;;;3.65;0.98;;;3.40;99.90;;;;;;5096147;28;20035;-67